Alder Grove, Washington
Current Conditions -  °F | °C
As of 8:53 PM on Friday 28 Nov 2014 (Local Time) from KSHN Reporting Station
Few Clouds Few Clouds  
Wind Chill: 28°   Ceiling: Unl
Heat Index: 35°   Visibility: 10mi
Dew Point: 32°   Wind: 9mph
Humidity: 89%   Direction: 230°SW
Pressure: 29.5"   Gusts: NA
Location:  47.555°N, 123.746°W
Report Text: KSHN 290453Z AUTO 23008KT 10SM FEW070 02/00 A2950 RMK AO2 SLP993 T00170000
Loading
Personal Weather Stations






























Interactive Weather Map New forecast layout! Learn more

10-Day Weather Forecast

Advertisements
Track Severe Weather on mobile